weather.gov     
National Weather Service

Terminal Aerodrome Forecast
NWS Homepage
This page is being discontinued on March 12, 2014.
The same data is available at this site. Please update your bookmarks.
Thank you, and we apologize for the inconvenience.
Please send an email to SR-SRH.Webmaster@noaa.gov with any concerns.


Current Version
Previous Version:    01  02  03  04  05  06  07  08  09  10  11  12  13  14  15  16  17  18  19  20  21  22  23  24  25  26  27  28  29  30  
   31  32  33  34  35  36  37  38  39  40  41  42  43  44  45  
[Printable]
720
FTUS42 KKEY 182300
TAFEYW
TAF
KEYW 182331Z 1900/1924 16008KT P6SM FEW022 BKN090
     FM190600 19008KT P6SM VCSH SCT020 BKN090
     FM190800 23009KT P6SM VCTS SCT020CB BKN090
      TEMPO 1908/1912 VRB15G25KT 3SM TSRA BKN020CB OVC090
     FM191500 28012KT P6SM BKN025
     FM192100 30011KT P6SM SCT025=


U.S. Dept. of Commerce
NOAA National Weather Service
1325 East West Highway
Silver Spring, MD 20910
E-mail: w-nws.webmaster@noaa.gov
Page last modified: May 16, 2007
NATIONAL WEATHER SERVICE: for Safety, for Work, for Fun - FOR LIFE